Latest Weather Observations for Gosford

IDN60801

Issued at 10:35 am EST Thursday 17 April 2014 (issued every 30 minutes, with the page automatically refreshed every 10 minutes)

About weather observations | Map of weather stations | Latest weather observations for NSW | Other Formats
Station Details ID: 061425 Name: GOSFORD AWS Lat: -33.44 Lon: 151.36 Height: 7.0 m
Data from the previous 72 hours. | See also: Recent months for locations in New South Wales
Date/Time
EST
Temp
°C
App
Temp
°C
Dew
Point
Rel
Hum
%
Delta-T
°C
Wind Press
QNH
hPa
Press
MSL
hPa
Rain
since 9 am
mm
Dir
 
Spd
km/h
Gust
km/h
Spd
kts
Gust
kts
17/10:30am 20.9 21.2 17.1 79 2.3 SW 11 19 6 10 - - 0.0
17/10:00am 20.3 20.6 16.9 81 2.1 WSW 11 17 6 9 - - 0.0
17/09:30am 19.5 19.7 16.7 84 1.7 WSW 11 19 6 10 - - 0.0
17/09:00am 18.4 18.1 15.5 83 1.7 WSW 11 19 6 10 - - 0.0
17/08:30am 17.6 17.5 15.0 85 1.5 W 9 13 5 7 - - 0.0
17/08:00am 16.9 17.4 15.6 92 0.8 W 7 11 4 6 - - 0.0
17/07:30am 15.8 15.5 14.5 92 0.7 W 9 15 5 8 - - 0.0
17/07:00am 14.8 14.8 14.2 96 0.3 W 7 11 4 6 - - 0.0
17/06:30am 14.2 13.4 14.0 99 0.1 W 11 17 6 9 - - 0.0
17/06:00am 14.3 13.1 14.1 99 0.1 W 13 17 7 9 - - 0.0
17/05:30am 14.4 13.3 14.2 99 0.1 W 13 17 7 9 - - 0.0
17/05:00am 14.4 14.9 14.1 98 0.2 NW 4 7 2 4 - - 0.0
17/04:30am 14.3 14.4 14.0 98 0.2 W 6 11 3 6 - - 0.0
17/04:00am 14.6 13.9 14.3 98 0.2 W 11 15 6 8 - - 0.0
17/03:30am 14.4 14.5 14.4 100 0.0 W 7 11 4 6 - - 0.0
17/03:00am 14.4 15.0 14.2 99 0.1 W 4 6 2 3 - - 0.0
17/02:30am 14.6 14.9 14.4 99 0.1 WNW 6 7 3 4 - - 0.0
17/02:00am 15.0 15.4 14.8 99 0.1 WNW 6 9 3 5 - - 0.0
17/01:30am 15.3 15.3 15.1 99 0.1 WNW 9 17 5 9 - - 0.0
17/01:00am 15.4 15.8 15.2 99 0.1 WNW 7 13 4 7 - - 0.0
17/12:30am 15.4 16.0 15.4 100 0.0 W 6 13 3 7 - - 0.0
17/12:00am 15.8 15.6 15.8 100 0.0 WNW 11 15 6 8 - - 0.0
 
Date/Time
EST
Temp
°C
App
Temp
°C
Dew
Point
Rel
Hum
%
Delta-T
°C
Wind Press
QNH
hPa
Press
MSL
hPa
Rain
since 9 am
mm
Dir
 
Spd
km/h
Gust
km/h
Spd
kts
Gust
kts
16/11:30pm 15.8 16.4 15.8 100 0.0 WNW 7 11 4 6 - - 0.0
16/11:00pm 15.5 16.0 15.5 100 0.0 WNW 7 11 4 6 - - 0.0
16/10:30pm 16.0 16.7 16.0 100 0.0 W 7 11 4 6 - - 0.0
16/10:00pm 15.3 - - - - W 6 9 3 5 - - 0.0
16/09:30pm 15.7 - - - - CALM 0 0 0 0 - - 0.0
16/09:00pm 15.9 - - - - WNW 4 4 2 2 - - 0.0
16/08:30pm 16.2 17.5 16.2 100 0.0 WNW 4 6 2 3 - - 0.0
16/08:00pm 16.4 18.2 16.4 100 0.0 W 2 6 1 3 - - 0.0
16/07:30pm 17.4 19.1 17.1 98 0.2 W 4 7 2 4 - - 0.0
16/07:00pm 18.6 20.0 17.8 95 0.5 SW 7 13 4 7 - - 0.0
16/06:30pm 19.1 20.9 18.3 95 0.5 S 6 11 3 6 - - 0.0
16/06:00pm 19.4 19.9 18.4 94 0.6 S 13 20 7 11 - - 0.0
16/05:30pm 19.5 20.1 17.6 89 1.2 S 11 19 6 10 - - 0.0
16/05:00pm 20.0 20.2 17.6 86 1.5 S 13 24 7 13 - - 0.0
16/04:30pm 20.5 20.7 17.7 84 1.7 S 13 22 7 12 - - 0.0
16/04:00pm 20.5 20.3 17.7 84 1.7 S 15 24 8 13 - - 0.0
16/03:30pm 21.0 21.5 18.4 85 1.6 S 13 22 7 12 - - 0.0
16/03:00pm 20.4 20.3 17.8 85 1.6 S 15 22 8 12 - - 0.0
16/02:30pm 20.1 20.4 17.9 87 1.4 S 13 22 7 12 - - 0.0
16/02:00pm 20.8 20.6 18.4 86 1.5 S 17 28 9 15 - - 0.0
16/01:30pm 21.6 22.5 18.4 82 2.0 SSW 11 19 6 10 - - 0.0
16/01:00pm 21.7 21.5 17.7 78 2.5 SSW 15 22 8 12 - - 0.0
16/12:30pm 21.6 22.3 18.0 80 2.2 S 11 19 6 10 - - 0.0
16/12:00pm 21.1 21.6 17.5 80 2.2 SSW 11 19 6 10 - - 0.0
16/11:30am 20.6 21.0 17.2 81 2.1 SW 11 20 6 11 - - 0.0
16/11:00am 19.8 20.6 17.2 85 1.6 SW 9 15 5 8 - - 0.0
16/10:30am 19.3 20.1 17.3 88 1.2 SW 9 17 5 9 - - 0.0
16/10:00am 18.5 18.5 16.3 87 1.3 SW 11 19 6 10 - - 0.0
16/09:30am 18.8 18.5 16.4 86 1.4 SW 13 22 7 12 - - 0.0
16/09:00am 18.5 19.4 16.7 89 1.1 WSW 7 15 4 8 - - 25.2
16/08:30am 17.7 17.6 15.9 89 1.1 SW 11 20 6 11 - - 25.2
16/08:00am 17.4 17.7 16.1 92 0.8 WSW 9 17 5 9 - - 25.2
16/07:30am 16.4 16.9 15.6 95 0.5 WSW 7 13 4 7 - - 25.2
16/07:00am 16.2 16.7 15.6 96 0.3 WSW 7 13 4 7 - - 25.2
16/06:30am 16.3 16.4 15.5 95 0.5 SW 9 19 5 10 - - 25.2
16/06:00am 16.1 16.2 15.6 97 0.3 W 9 19 5 10 - - 25.2
16/05:30am 16.8 17.6 16.3 97 0.3 SW 7 15 4 8 - - 25.2
16/05:00am 16.8 17.3 16.6 99 0.1 SW 9 17 5 9 - - 25.2
16/04:30am 16.6 16.2 16.3 98 0.2 SW 13 22 7 12 - - 25.2
16/04:00am 16.8 16.4 16.3 97 0.3 SW 13 20 7 11 - - 25.2
16/03:30am 16.8 17.3 16.5 98 0.2 SW 9 17 5 9 - - 25.2
16/03:00am 16.8 16.6 16.6 99 0.1 SW 13 22 7 12 - - 25.2
16/02:30am 16.7 16.9 16.7 100 0.0 SW 11 17 6 9 - - 25.2
16/02:00am 16.9 16.8 16.9 100 0.0 SW 13 20 7 11 - - 25.2
16/01:30am 16.6 17.1 16.6 100 0.0 SW 9 19 5 10 - - 25.2
16/01:00am 16.4 - - - - SW 7 15 4 8 - - 25.2
16/12:30am 16.3 - - - - SW 9 17 5 9 - - 25.2
16/12:00am 16.3 - - - - SW 11 20 6 11 - - 25.2
 
Date/Time
EST
Temp
°C
App
Temp
°C
Dew
Point
Rel
Hum
%
Delta-T
°C
Wind Press
QNH
hPa
Press
MSL
hPa
Rain
since 9 am
mm
Dir
 
Spd
km/h
Gust
km/h
Spd
kts
Gust
kts
15/11:30pm 16.1 - - - - WSW 6 11 3 6 - - 24.6
15/11:00pm 16.1 - - - - SW 7 17 4 9 - - 19.6
15/10:30pm 16.0 - - - - SW 11 19 6 10 - - 16.4
15/10:00pm 16.1 - - - - SW 9 17 5 9 - - 13.2
15/09:30pm 16.5 - - - - SSW 22 33 12 18 - - 9.2
15/09:00pm 16.4 - - - - SSW 13 24 7 13 - - 6.0
15/08:30pm 16.4 - - - - SW 9 20 5 11 - - 4.8
15/08:00pm 16.4 - - - - WSW 13 22 7 12 - - 4.4
15/07:30pm 16.6 - - - - SW 15 24 8 13 - - 2.6
15/07:00pm 16.6 - - - - SSW 9 20 5 11 - - 2.0
15/06:30pm 16.8 - - - - SW 13 26 7 14 - - 1.0
15/06:00pm 17.9 18.6 17.9 100 0.0 S 11 20 6 11 - - 1.0
15/05:30pm 18.3 18.8 18.3 100 0.0 SSW 13 20 7 11 - - 1.0
15/05:00pm 17.9 - - - - S 11 22 6 12 - - 1.0
15/04:30pm 16.6 17.5 16.6 100 0.0 SSW 7 13 4 7 - - 1.0
15/04:00pm 19.6 20.6 18.6 94 0.6 S 11 24 6 13 - - 0.2
15/03:30pm 20.6 20.2 16.2 76 2.6 S 13 22 7 12 - - 0.2
15/03:00pm 20.5 19.8 15.5 73 3.0 SSW 13 20 7 11 - - 0.2
15/02:30pm 20.7 20.0 16.5 77 2.5 S 15 22 8 12 - - 0.2
15/02:00pm 20.9 20.9 16.3 75 2.8 SSW 11 15 6 8 - - 0.2
15/01:30pm 20.3 19.7 14.7 70 3.3 S 11 17 6 9 - - 0.2
15/01:00pm 20.7 21.9 15.9 74 2.9 SW 4 7 2 4 - - 0.2
15/12:30pm 20.4 20.5 15.4 73 3.0 SSW 9 15 5 8 - - 0.2
15/12:00pm 19.7 19.3 15.1 75 2.7 SSW 11 19 6 10 - - 0.0
15/11:30am 19.9 20.5 15.3 75 2.7 SW 6 9 3 5 - - 0.0
15/11:00am 19.1 18.7 15.2 78 2.3 W 11 15 6 8 - - 0.0
15/10:30am 18.3 18.7 15.2 82 1.8 WSW 7 11 4 6 - - 0.0
15/10:00am 17.9 18.2 15.0 83 1.7 WSW 7 11 4 6 - - 0.0
15/09:30am 17.9 17.9 15.2 84 1.6 WSW 9 15 5 8 - - 0.0
15/09:00am 17.3 17.4 15.6 90 1.0 W 9 13 5 7 - - 7.8
15/08:30am 17.6 18.5 16.5 93 0.7 WSW 7 11 4 6 - - 7.8
15/08:00am 15.6 16.3 15.6 100 0.0 W 6 7 3 4 - - 7.8
15/07:30am 15.5 16.0 15.5 100 0.0 W 7 11 4 6 - - 7.8
15/07:00am 15.6 15.7 15.6 100 0.0 W 9 13 5 7 - - 7.8
15/06:30am 14.5 14.8 14.5 100 0.0 W 6 9 3 5 - - 7.8
15/06:00am 14.6 14.4 14.6 100 0.0 W 9 13 5 7 - - 7.8
15/05:30am 14.3 14.3 14.3 100 0.0 W 7 11 4 6 - - 7.8
15/05:00am 14.5 14.2 14.5 100 0.0 W 9 13 5 7 - - 7.8
15/04:30am 14.6 14.8 14.6 100 0.0 W 7 11 4 6 - - 7.8
15/04:00am 14.8 14.6 14.8 100 0.0 W 9 13 5 7 - - 7.8
15/03:30am 15.2 14.8 15.2 100 0.0 W 11 17 6 9 - - 7.8
15/03:00am 15.5 15.6 15.5 100 0.0 W 9 13 5 7 - - 7.8
15/02:30am 15.5 - - - - W 9 17 5 9 - - 7.8
15/02:00am 15.5 - - - - NW 2 4 1 2 - - 7.8
15/01:30am 15.7 - - - - W 6 9 3 5 - - 7.8
15/01:00am 15.6 - - - - W 7 9 4 5 - - 7.8
15/12:30am 15.4 - - - - WNW 4 11 2 6 - - 7.8
15/12:00am 15.6 - - - - NW 2 4 1 2 - - 7.8
 
Date/Time
EST
Temp
°C
App
Temp
°C
Dew
Point
Rel
Hum
%
Delta-T
°C
Wind Press
QNH
hPa
Press
MSL
hPa
Rain
since 9 am
mm
Dir
 
Spd
km/h
Gust
km/h
Spd
kts
Gust
kts
14/11:30pm 16.0 - - - - WSW 4 7 2 4 - - 7.8
14/11:00pm 16.0 - - - - W 7 13 4 7 - - 7.6
14/10:30pm 15.9 - - - - W 4 7 2 4 - - 7.6
14/10:00pm 16.1 - - - - WNW 4 6 2 3 - - 7.6
14/09:30pm 16.3 - - - - SW 7 15 4 8 - - 6.8
14/09:00pm 16.3 - - - - SW 9 17 5 9 - - 6.8
14/08:30pm 16.1 - - - - WNW 2 6 1 3 - - 5.8
14/08:00pm 16.0 - - - - NNW 2 4 1 2 - - 5.6
14/07:30pm 16.1 - - - - W 4 7 2 4 - - 5.4
14/07:00pm 16.2 - - - - NE 4 6 2 3 - - 5.4
14/06:30pm 16.5 - - - - CALM 0 0 0 0 - - 4.2
14/06:00pm 16.2 - - - - ESE 11 19 6 10 - - 3.8
14/05:30pm 16.6 - - - - CALM 0 4 0 2 - - 3.4
14/05:00pm 16.5 - - - - WNW 6 7 3 4 - - 3.4
14/04:30pm 16.6 - - - - CALM 0 2 0 1 - - 2.2
14/04:00pm 16.5 - - - - SSW 13 24 7 13 - - 2.0
14/03:30pm 16.8 - - - - SSW 9 15 5 8 - - 1.0
14/03:00pm 18.4 19.1 17.9 97 0.3 SSW 11 17 6 9 - - 0.2
14/02:30pm 17.2 17.6 17.2 100 0.0 SSW 11 19 6 10 - - 0.2
14/02:00pm 18.0 17.9 17.8 99 0.1 SSW 15 26 8 14 - - 0.2
14/01:30pm 18.9 17.1 17.0 89 1.1 SSW 22 37 12 20 - - 0.2
14/01:00pm 19.3 20.9 17.8 91 0.9 S 6 9 3 5 - - 0.2
14/12:30pm 18.0 19.8 17.4 96 0.4 E 4 6 2 3 - - 0.2
14/12:00pm 19.0 20.3 17.1 89 1.2 W 6 11 3 6 - - 0.0
14/11:30am 17.7 18.8 16.7 94 0.6 SW 6 11 3 6 - - 0.0
14/11:00am 18.4 18.5 16.6 89 1.1 SSW 11 17 6 9 - - 0.0

Other Formats:

Comma delimited format used in spreadsheet applications
http://www.bom.gov.au/fwo/IDN60801/IDN60801.94782.axf

JavaScript Object Notation format (JSON) in row-major order
http://www.bom.gov.au/fwo/IDN60801/IDN60801.94782.json